sensor_id;sensor_type;location;lat;lon;timestamp;pressure;altitude;pressure_sealevel;temperature;humidity
61408;BME280;47274;43.054;25.146;2023-03-03T00:01:34;95747.28;;;1.86;100.00
61408;BME280;47274;43.054;25.146;2023-03-03T00:04:50;95740.78;;;1.82;100.00
61408;BME280;47274;43.054;25.146;2023-03-03T00:07:36;95743.22;;;1.84;100.00
61408;BME280;47274;43.054;25.146;2023-03-03T00:10:09;95739.16;;;1.81;100.00
61408;BME280;47274;43.054;25.146;2023-03-03T00:12:49;95735.09;;;1.79;100.00
61408;BME280;47274;43.054;25.146;2023-03-03T00:15:18;95726.75;;;1.77;100.00
61408;BME280;47274;43.054;25.146;2023-03-03T00:17:45;95732.38;;;1.82;100.00
61408;BME280;47274;43.054;25.146;2023-03-03T00:20:39;95727.41;;;1.80;100.00
61408;BME280;47274;43.054;25.146;2023-03-03T00:23:27;95723.97;;;1.81;100.00
61408;BME280;47274;43.054;25.146;2023-03-03T00:30:01;95707.16;;;1.80;100.00
61408;BME280;47274;43.054;25.146;2023-03-03T00:33:22;95700.56;;;1.78;100.00
61408;BME280;47274;43.054;25.146;2023-03-03T00:39:37;95683.47;;;1.67;100.00
61408;BME280;47274;43.054;25.146;2023-03-03T00:42:37;95672.47;;;1.68;100.00
61408;BME280;47274;43.054;25.146;2023-03-03T00:49:24;95682.50;;;1.84;100.00
61408;BME280;47274;43.054;25.146;2023-03-03T00:52:19;95674.19;;;1.82;100.00
61408;BME280;47274;43.054;25.146;2023-03-03T00:55:23;95673.19;;;1.84;100.00
61408;BME280;47274;43.054;25.146;2023-03-03T00:57:56;95670.94;;;1.80;100.00
61408;BME280;47274;43.054;25.146;2023-03-03T01:00:55;95670.75;;;1.83;100.00
61408;BME280;47274;43.054;25.146;2023-03-03T01:03:58;95653.66;;;1.72;100.00
61408;BME280;47274;43.054;25.146;2023-03-03T01:06:44;95666.69;;;1.80;100.00
61408;BME280;47274;43.054;25.146;2023-03-03T01:09:22;95660.81;;;1.80;100.00
61408;BME280;47274;43.054;25.146;2023-03-03T01:11:58;95669.03;;;1.83;100.00
61408;BME280;47274;43.054;25.146;2023-03-03T01:14:55;95668.84;;;1.86;100.00
61408;BME280;47274;43.054;25.146;2023-03-03T01:17:36;95668.75;;;1.88;100.00
61408;BME280;47274;43.054;25.146;2023-03-03T01:20:07;95666.31;;;1.86;100.00
61408;BME280;47274;43.054;25.146;2023-03-03T01:22:34;95644.47;;;1.71;100.00
61408;BME280;47274;43.054;25.146;2023-03-03T01:25:03;95650.78;;;1.78;100.00
61408;BME280;47274;43.054;25.146;2023-03-03T01:27:30;95660.63;;;1.83;100.00
61408;BME280;47274;43.054;25.146;2023-03-03T01:29:57;95620.16;;;1.69;100.00
61408;BME280;47274;43.054;25.146;2023-03-03T01:32:44;95656.09;;;1.88;100.00
61408;BME280;47274;43.054;25.146;2023-03-03T01:36:04;95649.41;;;1.87;100.00
61408;BME280;47274;43.054;25.146;2023-03-03T01:42:06;95644.91;;;1.92;100.00
61408;BME280;47274;43.054;25.146;2023-03-03T01:49:02;95650.97;;;1.89;100.00
61408;BME280;47274;43.054;25.146;2023-03-03T01:51:57;95637.69;;;1.86;100.00
61408;BME280;47274;43.054;25.146;2023-03-03T01:58:44;95638.66;;;1.83;100.00
61408;BME280;47274;43.054;25.146;2023-03-03T02:01:38;95635.97;;;1.86;100.00
61408;BME280;47274;43.054;25.146;2023-03-03T02:04:20;95638.38;;;1.88;100.00
61408;BME280;47274;43.054;25.146;2023-03-03T02:07:17;95631.72;;;1.87;100.00
61408;BME280;47274;43.054;25.146;2023-03-03T02:13:02;95628.47;;;1.85;100.00
61408;BME280;47274;43.054;25.146;2023-03-03T02:15:56;95626.19;;;1.80;100.00
61408;BME280;47274;43.054;25.146;2023-03-03T02:22:05;95643.38;;;1.75;100.00
61408;BME280;47274;43.054;25.146;2023-03-03T02:25:30;95630.97;;;1.71;100.00
61408;BME280;47274;43.054;25.146;2023-03-03T02:31:34;95649.31;;;1.74;100.00
61408;BME280;47274;43.054;25.146;2023-03-03T02:34:14;95646.88;;;1.73;100.00
61408;BME280;47274;43.054;25.146;2023-03-03T02:36:52;95638.09;;;1.64;100.00
61408;BME280;47274;43.054;25.146;2023-03-03T02:39:34;95640.22;;;1.72;100.00
61408;BME280;47274;43.054;25.146;2023-03-03T02:44:48;95637.69;;;1.72;100.00
61408;BME280;47274;43.054;25.146;2023-03-03T02:47:24;95624.66;;;1.63;100.00
61408;BME280;47274;43.054;25.146;2023-03-03T02:49:51;95619.06;;;1.58;100.00
61408;BME280;47274;43.054;25.146;2023-03-03T02:52:23;95627.28;;;1.62;100.00
61408;BME280;47274;43.054;25.146;2023-03-03T02:54:55;95640.03;;;1.75;100.00
61408;BME280;47274;43.054;25.146;2023-03-03T02:57:32;95646.06;;;1.72;100.00
61408;BME280;47274;43.054;25.146;2023-03-03T03:00:37;95642.09;;;1.68;100.00
61408;BME280;47274;43.054;25.146;2023-03-03T03:04:17;95645.44;;;1.69;100.00
61408;BME280;47274;43.054;25.146;2023-03-03T03:07:07;95633.97;;;1.63;100.00
61408;BME280;47274;43.054;25.146;2023-03-03T03:09:52;95646.25;;;1.69;100.00
61408;BME280;47274;43.054;25.146;2023-03-03T03:12:35;95618.25;;;1.58;100.00
61408;BME280;47274;43.054;25.146;2023-03-03T03:15:40;95637.84;;;1.69;100.00
61408;BME280;47274;43.054;25.146;2023-03-03T03:21:23;95620.59;;;1.61;100.00
61408;BME280;47274;43.054;25.146;2023-03-03T03:27:35;95610.03;;;1.54;100.00
61408;BME280;47274;43.054;25.146;2023-03-03T03:30:53;95629.28;;;1.71;100.00
61408;BME280;47274;43.054;25.146;2023-03-03T03:34:25;95610.72;;;1.56;100.00
61408;BME280;47274;43.054;25.146;2023-03-03T03:38:16;95622.84;;;1.65;100.00
61408;BME280;47274;43.054;25.146;2023-03-03T03:41:31;95621.88;;;1.68;100.00
61408;BME280;47274;43.054;25.146;2023-03-03T03:44:25;95604.50;;;1.62;100.00
61408;BME280;47274;43.054;25.146;2023-03-03T03:47:28;95614.47;;;1.65;100.00
61408;BME280;47274;43.054;25.146;2023-03-03T03:50:21;95496.03;;;0.86;100.00
61408;BME280;47274;43.054;25.146;2023-03-03T03:52:58;95604.59;;;1.60;100.00
61408;BME280;47274;43.054;25.146;2023-03-03T03:55:39;95595.66;;;1.55;100.00
61408;BME280;47274;43.054;25.146;2023-03-03T03:58:18;95581.47;;;1.38;100.00
61408;BME280;47274;43.054;25.146;2023-03-03T04:01:05;95602.16;;;1.59;100.00
61408;BME280;47274;43.054;25.146;2023-03-03T04:03:42;95600.63;;;1.56;100.00
61408;BME280;47274;43.054;25.146;2023-03-03T04:06:23;95598.72;;;1.60;100.00
61408;BME280;47274;43.054;25.146;2023-03-03T04:08:59;95588.72;;;1.58;100.00
61408;BME280;47274;43.054;25.146;2023-03-03T04:11:27;95579.13;;;1.49;100.00
61408;BME280;47274;43.054;25.146;2023-03-03T04:17:46;95584.75;;;1.54;100.00
61408;BME280;47274;43.054;25.146;2023-03-03T04:20:15;95587.34;;;1.53;100.00
61408;BME280;47274;43.054;25.146;2023-03-03T04:23:02;95568.72;;;1.39;100.00
61408;BME280;47274;43.054;25.146;2023-03-03T04:26:01;95588.16;;;1.53;100.00
61408;BME280;47274;43.054;25.146;2023-03-03T04:28:52;95589.78;;;1.54;100.00
61408;BME280;47274;43.054;25.146;2023-03-03T04:35:03;95591.41;;;1.55;100.00
61408;BME280;47274;43.054;25.146;2023-03-03T04:37:47;95591.59;;;1.52;100.00
61408;BME280;47274;43.054;25.146;2023-03-03T04:40:21;95582.63;;;1.47;100.00
61408;BME280;47274;43.054;25.146;2023-03-03T04:42:56;95594.94;;;1.53;100.00
61408;BME280;47274;43.054;25.146;2023-03-03T04:46:06;95596.75;;;1.51;100.00
61408;BME280;47274;43.054;25.146;2023-03-03T04:52:12;95589.06;;;1.38;100.00
61408;BME280;47274;43.054;25.146;2023-03-03T04:54:38;95588.06;;;1.40;100.00
61408;BME280;47274;43.054;25.146;2023-03-03T04:57:08;95600.09;;;1.51;100.00
61408;BME280;47274;43.054;25.146;2023-03-03T04:59:52;95588.72;;;1.44;100.00
61408;BME280;47274;43.054;25.146;2023-03-03T05:02:18;95586.34;;;1.41;100.00
61408;BME280;47274;43.054;25.146;2023-03-03T05:04:46;95579.28;;;1.32;100.00
61408;BME280;47274;43.054;25.146;2023-03-03T05:07:12;95601.81;;;1.51;100.00
61408;BME280;47274;43.054;25.146;2023-03-03T05:09:38;95612.91;;;1.48;100.00
61408;BME280;47274;43.054;25.146;2023-03-03T05:12:04;95588.59;;;1.31;100.00
61408;BME280;47274;43.054;25.146;2023-03-03T05:14:30;95586.78;;;1.33;100.00
61408;BME280;47274;43.054;25.146;2023-03-03T05:16:56;95611.09;;;1.50;100.00
61408;BME280;47274;43.054;25.146;2023-03-03T05:19:22;95590.78;;;1.37;100.00
61408;BME280;47274;43.054;25.146;2023-03-03T05:21:48;95617.78;;;1.51;100.00
61408;BME280;47274;43.054;25.146;2023-03-03T05:24:15;95591.03;;;1.33;100.00
61408;BME280;47274;43.054;25.146;2023-03-03T05:26:41;95602.06;;;1.46;100.00
61408;BME280;47274;43.054;25.146;2023-03-03T05:29:12;95611.00;;;1.52;100.00
61408;BME280;47274;43.054;25.146;2023-03-03T05:31:56;95617.69;;;1.53;100.00
61408;BME280;47274;43.054;25.146;2023-03-03T05:35:28;95616.59;;;1.57;100.00
61408;BME280;47274;43.054;25.146;2023-03-03T05:38:29;95618.16;;;1.59;100.00
61408;BME280;47274;43.054;25.146;2023-03-03T05:41:07;95622.50;;;1.57;100.00
61408;BME280;47274;43.054;25.146;2023-03-03T05:44:23;95616.53;;;1.58;100.00
61408;BME280;47274;43.054;25.146;2023-03-03T05:51:36;95621.47;;;1.60;100.00
61408;BME280;47274;43.054;25.146;2023-03-03T05:54:23;95615.63;;;1.59;100.00
61408;BME280;47274;43.054;25.146;2023-03-03T05:57:16;95616.34;;;1.61;100.00
61408;BME280;47274;43.054;25.146;2023-03-03T05:59:49;95618.78;;;1.63;100.00
61408;BME280;47274;43.054;25.146;2023-03-03T06:02:20;95615.53;;;1.61;100.00
61408;BME280;47274;43.054;25.146;2023-03-03T06:04:54;95616.00;;;1.68;100.00
61408;BME280;47274;43.054;25.146;2023-03-03T06:07:26;95618.72;;;1.64;100.00
61408;BME280;47274;43.054;25.146;2023-03-03T06:09:57;95608.94;;;1.58;100.00
61408;BME280;47274;43.054;25.146;2023-03-03T06:12:35;95618.44;;;1.69;100.00
61408;BME280;47274;43.054;25.146;2023-03-03T06:15:08;95604.59;;;1.60;100.00
61408;BME280;47274;43.054;25.146;2023-03-03T06:17:39;95623.13;;;1.75;100.00
61408;BME280;47274;43.054;25.146;2023-03-03T06:20:31;95625.56;;;1.77;100.00
61408;BME280;47274;43.054;25.146;2023-03-03T06:23:00;95609.03;;;1.71;100.00
61408;BME280;47274;43.054;25.146;2023-03-03T06:25:31;95617.25;;;1.75;100.00
61408;BME280;47274;43.054;25.146;2023-03-03T06:28:27;95617.91;;;1.78;100.00
61408;BME280;47274;43.054;25.146;2023-03-03T06:31:11;95625.38;;;1.80;100.00
61408;BME280;47274;43.054;25.146;2023-03-03T06:34:03;95614.72;;;1.75;100.00
61408;BME280;47274;43.054;25.146;2023-03-03T06:36:30;95609.94;;;1.70;100.00
61408;BME280;47274;43.054;25.146;2023-03-03T06:38:59;95626.81;;;1.84;100.00
61408;BME280;47274;43.054;25.146;2023-03-03T06:41:30;95629.09;;;1.88;100.00
61408;BME280;47274;43.054;25.146;2023-03-03T06:44:22;95605.94;;;1.80;100.00
61408;BME280;47274;43.054;25.146;2023-03-03T06:46:54;95624.38;;;1.97;100.00
61408;BME280;47274;43.054;25.146;2023-03-03T06:49:24;95560.88;;;1.58;100.00
61408;BME280;47274;43.054;25.146;2023-03-03T06:51:50;95612.72;;;1.94;100.00
61408;BME280;47274;43.054;25.146;2023-03-03T06:54:20;95625.66;;;2.04;100.00
61408;BME280;47274;43.054;25.146;2023-03-03T06:56:58;95620.59;;;2.04;100.00
61408;BME280;47274;43.054;25.146;2023-03-03T06:59:30;95613.34;;;1.98;100.00
61408;BME280;47274;43.054;25.146;2023-03-03T07:02:13;95624.28;;;2.12;100.00
61408;BME280;47274;43.054;25.146;2023-03-03T07:04:40;95625.00;;;2.14;100.00
61408;BME280;47274;43.054;25.146;2023-03-03T07:07:22;95624.63;;;2.21;100.00
61408;BME280;47274;43.054;25.146;2023-03-03T07:09:51;95613.34;;;2.12;100.00
61408;BME280;47274;43.054;25.146;2023-03-03T07:12:24;95613.44;;;2.10;100.00
61408;BME280;47274;43.054;25.146;2023-03-03T07:15:14;95623.72;;;2.22;100.00
61408;BME280;47274;43.054;25.146;2023-03-03T07:17:49;95627.78;;;2.24;100.00
61408;BME280;47274;43.054;25.146;2023-03-03T07:20:22;95593.19;;;2.10;100.00
61408;BME280;47274;43.054;25.146;2023-03-03T07:22:50;95586.31;;;2.12;100.00
61408;BME280;47274;43.054;25.146;2023-03-03T07:25:30;95617.63;;;2.38;100.00
61408;BME280;47274;43.054;25.146;2023-03-03T07:30:47;95611.75;;;2.38;100.00
61408;BME280;47274;43.054;25.146;2023-03-03T07:33:39;95615.03;;;2.40;100.00
61408;BME280;47274;43.054;25.146;2023-03-03T07:36:28;95599.44;;;2.46;100.00
61408;BME280;47274;43.054;25.146;2023-03-03T07:39:27;95611.09;;;2.49;100.00
61408;BME280;47274;43.054;25.146;2023-03-03T07:41:58;95610.81;;;2.53;100.00
61408;BME280;47274;43.054;25.146;2023-03-03T07:44:35;95606.66;;;2.52;100.00
61408;BME280;47274;43.054;25.146;2023-03-03T07:47:19;95607.56;;;2.51;100.00
61408;BME280;47274;43.054;25.146;2023-03-03T07:49:54;95581.56;;;2.35;100.00
61408;BME280;47274;43.054;25.146;2023-03-03T07:52:30;95554.66;;;2.20;100.00
61408;BME280;47274;43.054;25.146;2023-03-03T07:55:00;95597.09;;;2.43;100.00
61408;BME280;47274;43.054;25.146;2023-03-03T07:57:36;95608.72;;;2.60;100.00
61408;BME280;47274;43.054;25.146;2023-03-03T08:05:33;95607.50;;;2.66;100.00
61408;BME280;47274;43.054;25.146;2023-03-03T08:10:46;95596.28;;;2.70;100.00
61408;BME280;47274;43.054;25.146;2023-03-03T08:16:01;95555.78;;;2.55;100.00
61408;BME280;47274;43.054;25.146;2023-03-03T08:18:31;95565.59;;;2.74;100.00
61408;BME280;47274;43.054;25.146;2023-03-03T08:21:22;95583.13;;;2.77;100.00
61408;BME280;47274;43.054;25.146;2023-03-03T08:23:49;95594.75;;;2.94;100.00
61408;BME280;47274;43.054;25.146;2023-03-03T08:26:17;95585.59;;;2.92;100.00
61408;BME280;47274;43.054;25.146;2023-03-03T08:29:06;95593.72;;;2.97;100.00
61408;BME280;47274;43.054;25.146;2023-03-03T08:32:02;95582.16;;;2.93;100.00
61408;BME280;47274;43.054;25.146;2023-03-03T08:34:37;95585.91;;;3.00;100.00
61408;BME280;47274;43.054;25.146;2023-03-03T08:37:07;95582.25;;;3.04;100.00
61408;BME280;47274;43.054;25.146;2023-03-03T08:39:39;95579.72;;;3.04;100.00
61408;BME280;47274;43.054;25.146;2023-03-03T08:42:13;95523.13;;;2.78;100.00
61408;BME280;47274;43.054;25.146;2023-03-03T08:44:59;95576.53;;;3.15;100.00
61408;BME280;47274;43.054;25.146;2023-03-03T08:47:29;95512.19;;;2.77;100.00
61408;BME280;47274;43.054;25.146;2023-03-03T08:49:59;95524.97;;;2.89;100.00
61408;BME280;47274;43.054;25.146;2023-03-03T08:52:25;95513.50;;;2.83;100.00
61408;BME280;47274;43.054;25.146;2023-03-03T08:54:51;95529.03;;;2.91;100.00
61408;BME280;47274;43.054;25.146;2023-03-03T08:57:17;95472.41;;;2.52;100.00
61408;BME280;47274;43.054;25.146;2023-03-03T08:59:43;95577.75;;;3.22;100.00
61408;BME280;47274;43.054;25.146;2023-03-03T09:02:17;95449.91;;;2.48;100.00
61408;BME280;47274;43.054;25.146;2023-03-03T09:04:51;95520.19;;;2.97;100.00
61408;BME280;47274;43.054;25.146;2023-03-03T09:07:22;95483.69;;;2.74;100.00
61408;BME280;47274;43.054;25.146;2023-03-03T09:09:48;95459.88;;;2.64;100.00
61408;BME280;47274;43.054;25.146;2023-03-03T09:12:37;95465.03;;;2.75;100.00
61408;BME280;47274;43.054;25.146;2023-03-03T09:15:24;95567.09;;;3.42;100.00
61408;BME280;47274;43.054;25.146;2023-03-03T09:21:25;95560.28;;;3.30;100.00
61408;BME280;47274;43.054;25.146;2023-03-03T09:23:57;95475.06;;;2.76;100.00
61408;BME280;47274;43.054;25.146;2023-03-03T09:26:46;95563.75;;;3.29;100.00
61408;BME280;47274;43.054;25.146;2023-03-03T09:31:49;95437.75;;;2.66;100.00
61408;BME280;47274;43.054;25.146;2023-03-03T09:34:39;95555.53;;;3.51;100.00
61408;BME280;47274;43.054;25.146;2023-03-03T09:37:26;95537.56;;;3.41;100.00
61408;BME280;47274;43.054;25.146;2023-03-03T09:39:54;95552.06;;;3.65;100.00
61408;BME280;47274;43.054;25.146;2023-03-03T09:42:49;95552.38;;;3.73;100.00
61408;BME280;47274;43.054;25.146;2023-03-03T09:45:25;95553.03;;;3.88;100.00
61408;BME280;47274;43.054;25.146;2023-03-03T09:51:10;95551.72;;;3.95;100.00
61408;BME280;47274;43.054;25.146;2023-03-03T09:57:03;95547.09;;;4.00;100.00
61408;BME280;47274;43.054;25.146;2023-03-03T09:59:42;95543.75;;;3.99;100.00
61408;BME280;47274;43.054;25.146;2023-03-03T10:02:30;95517.91;;;3.94;100.00
61408;BME280;47274;43.054;25.146;2023-03-03T10:11:22;95530.28;;;4.23;100.00
61408;BME280;47274;43.054;25.146;2023-03-03T10:16:48;95538.94;;;4.44;100.00
61408;BME280;47274;43.054;25.146;2023-03-03T10:25:40;95528.78;;;4.44;100.00
61408;BME280;47274;43.054;25.146;2023-03-03T10:28:45;95528.31;;;4.39;100.00
61408;BME280;47274;43.054;25.146;2023-03-03T10:35:12;95530.41;;;4.21;100.00
61408;BME280;47274;43.054;25.146;2023-03-03T10:52:30;95511.22;;;3.93;100.00
61408;BME280;47274;43.054;25.146;2023-03-03T11:03:21;95505.22;;;3.94;100.00
61408;BME280;47274;43.054;25.146;2023-03-03T11:06:20;95485.91;;;3.92;100.00
61408;BME280;47274;43.054;25.146;2023-03-03T11:11:48;95488.69;;;4.13;100.00
61408;BME280;47274;43.054;25.146;2023-03-03T11:35:24;95468.66;;;4.21;100.00
61408;BME280;47274;43.054;25.146;2023-03-03T11:49:18;95465.44;;;4.06;100.00
61408;BME280;47274;43.054;25.146;2023-03-03T11:55:04;95466.25;;;4.07;100.00
61408;BME280;47274;43.054;25.146;2023-03-03T11:58:28;95458.63;;;4.07;100.00
61408;BME280;47274;43.054;25.146;2023-03-03T12:03:33;95462.53;;;3.99;100.00
61408;BME280;47274;43.054;25.146;2023-03-03T12:06:38;95466.81;;;3.86;100.00
61408;BME280;47274;43.054;25.146;2023-03-03T12:12:14;95458.03;;;3.79;100.00
61408;BME280;47274;43.054;25.146;2023-03-03T12:17:51;95467.00;;;3.96;100.00
61408;BME280;47274;43.054;25.146;2023-03-03T12:20:33;95486.41;;;3.97;100.00
61408;BME280;47274;43.054;25.146;2023-03-03T12:23:23;95470.09;;;3.88;100.00
61408;BME280;47274;43.054;25.146;2023-03-03T12:28:57;95471.91;;;3.86;100.00
61408;BME280;47274;43.054;25.146;2023-03-03T12:31:35;95466.03;;;3.86;100.00
61408;BME280;47274;43.054;25.146;2023-03-03T12:34:43;95466.31;;;3.94;100.00
61408;BME280;47274;43.054;25.146;2023-03-03T12:37:22;95459.09;;;4.00;100.00
61408;BME280;47274;43.054;25.146;2023-03-03T12:46:50;95471.31;;;4.07;100.00
61408;BME280;47274;43.054;25.146;2023-03-03T12:49:08;95458.56;;;3.95;100.00
61408;BME280;47274;43.054;25.146;2023-03-03T12:57:28;95465.72;;;3.90;100.00
61408;BME280;47274;43.054;25.146;2023-03-03T13:00:23;95471.81;;;3.88;100.00
61408;BME280;47274;43.054;25.146;2023-03-03T13:06:47;95460.63;;;3.66;100.00
61408;BME280;47274;43.054;25.146;2023-03-03T13:09:30;95473.19;;;3.68;100.00
61408;BME280;47274;43.054;25.146;2023-03-03T13:15:02;95470.84;;;3.65;100.00
61408;BME280;47274;43.054;25.146;2023-03-03T13:22:49;95474.31;;;3.64;100.00
61408;BME280;47274;43.054;25.146;2023-03-03T13:31:04;95463.88;;;3.55;100.00
61408;BME280;47274;43.054;25.146;2023-03-03T13:33:34;95481.94;;;3.64;100.00
61408;BME280;47274;43.054;25.146;2023-03-03T13:36:12;95362.63;;;3.03;100.00
61408;BME280;47274;43.054;25.146;2023-03-03T13:38:49;95451.47;;;3.64;100.00
61408;BME280;47274;43.054;25.146;2023-03-03T13:41:25;95471.16;;;3.73;100.00
61408;BME280;47274;43.054;25.146;2023-03-03T13:44:01;95466.69;;;3.76;100.00
61408;BME280;47274;43.054;25.146;2023-03-03T13:46:39;95391.97;;;3.31;100.00
61408;BME280;47274;43.054;25.146;2023-03-03T13:52:01;95443.88;;;3.64;100.00
61408;BME280;47274;43.054;25.146;2023-03-03T13:57:39;95469.72;;;3.69;100.00
61408;BME280;47274;43.054;25.146;2023-03-03T14:00:43;95468.31;;;3.65;100.00
61408;BME280;47274;43.054;25.146;2023-03-03T14:03:32;95463.25;;;3.65;100.00
61408;BME280;47274;43.054;25.146;2023-03-03T14:06:14;95460.44;;;3.56;100.00
61408;BME280;47274;43.054;25.146;2023-03-03T14:11:22;95390.50;;;3.16;100.00
61408;BME280;47274;43.054;25.146;2023-03-03T14:21:46;95461.78;;;3.49;100.00
61408;BME280;47274;43.054;25.146;2023-03-03T14:24:22;95417.78;;;3.25;100.00
61408;BME280;47274;43.054;25.146;2023-03-03T14:26:54;95398.41;;;3.11;100.00
61408;BME280;47274;43.054;25.146;2023-03-03T14:29:34;95415.34;;;3.23;100.00
61408;BME280;47274;43.054;25.146;2023-03-03T14:32:19;95439.69;;;3.39;100.00
61408;BME280;47274;43.054;25.146;2023-03-03T14:34:57;95419.94;;;3.18;100.00
61408;BME280;47274;43.054;25.146;2023-03-03T14:37:45;95423.66;;;3.25;100.00
61408;BME280;47274;43.054;25.146;2023-03-03T14:40:21;95433.69;;;3.40;100.00
61408;BME280;47274;43.054;25.146;2023-03-03T14:42:55;95450.88;;;3.60;100.00
61408;BME280;47274;43.054;25.146;2023-03-03T14:45:39;95455.41;;;3.68;100.00
61408;BME280;47274;43.054;25.146;2023-03-03T14:48:15;95460.09;;;3.74;100.00
61408;BME280;47274;43.054;25.146;2023-03-03T14:50:47;95440.31;;;3.66;100.00
61408;BME280;47274;43.054;25.146;2023-03-03T14:55:53;95451.53;;;3.75;100.00
61408;BME280;47274;43.054;25.146;2023-03-03T14:58:45;95457.22;;;3.78;100.00
61408;BME280;47274;43.054;25.146;2023-03-03T15:01:31;95458.88;;;3.67;100.00
61408;BME280;47274;43.054;25.146;2023-03-03T15:04:24;95466.91;;;3.61;100.00
61408;BME280;47274;43.054;25.146;2023-03-03T15:06:52;95465.09;;;3.63;100.00
61408;BME280;47274;43.054;25.146;2023-03-03T15:11:50;95458.91;;;3.54;100.00
61408;BME280;47274;43.054;25.146;2023-03-03T15:14:19;95426.69;;;3.30;100.00
61408;BME280;47274;43.054;25.146;2023-03-03T15:16:45;95452.25;;;3.40;100.00
61408;BME280;47274;43.054;25.146;2023-03-03T15:24:39;95459.13;;;3.38;100.00
61408;BME280;47274;43.054;25.146;2023-03-03T15:27:20;95466.97;;;3.35;100.00
61408;BME280;47274;43.054;25.146;2023-03-03T15:30:06;95456.91;;;3.33;100.00
61408;BME280;47274;43.054;25.146;2023-03-03T15:32:51;95462.72;;;3.36;100.00
61408;BME280;47274;43.054;25.146;2023-03-03T15:35:38;95442.91;;;3.28;100.00
61408;BME280;47274;43.054;25.146;2023-03-03T15:43:47;95351.03;;;2.62;100.00
61408;BME280;47274;43.054;25.146;2023-03-03T15:52:36;95466.16;;;3.22;100.00
61408;BME280;47274;43.054;25.146;2023-03-03T15:55:23;95468.31;;;3.15;100.00
61408;BME280;47274;43.054;25.146;2023-03-03T15:58:20;95456.22;;;3.06;100.00
61408;BME280;47274;43.054;25.146;2023-03-03T16:03:44;95466.97;;;3.09;100.00
61408;BME280;47274;43.054;25.146;2023-03-03T16:11:44;95473.38;;;3.02;100.00
61408;BME280;47274;43.054;25.146;2023-03-03T16:14:33;95471.56;;;3.04;100.00
61408;BME280;47274;43.054;25.146;2023-03-03T16:17:29;95471.84;;;3.00;100.00
61408;BME280;47274;43.054;25.146;2023-03-03T16:20:22;95482.59;;;3.03;100.00
61408;BME280;47274;43.054;25.146;2023-03-03T16:31:36;95495.97;;;3.05;100.00
61408;BME280;47274;43.054;25.146;2023-03-03T16:36:45;95490.81;;;2.94;100.00
61408;BME280;47274;43.054;25.146;2023-03-03T16:42:32;95505.41;;;3.03;100.00
61408;BME280;47274;43.054;25.146;2023-03-03T16:44:53;95507.53;;;2.97;100.00
61408;BME280;47274;43.054;25.146;2023-03-03T16:47:50;95515.13;;;2.97;100.00
61408;BME280;47274;43.054;25.146;2023-03-03T16:50:22;95512.72;;;2.95;100.00
61408;BME280;47274;43.054;25.146;2023-03-03T16:53:01;95511.50;;;2.88;100.00
61408;BME280;47274;43.054;25.146;2023-03-03T17:01:49;95498.19;;;2.72;100.00
61408;BME280;47274;43.054;25.146;2023-03-03T17:13:04;95529.03;;;2.91;100.00
61408;BME280;47274;43.054;25.146;2023-03-03T17:15:48;95533.28;;;2.91;100.00
61408;BME280;47274;43.054;25.146;2023-03-03T17:18:46;95530.03;;;2.89;100.00
61408;BME280;47274;43.054;25.146;2023-03-03T17:21:31;95516.53;;;2.75;100.00
61408;BME280;47274;43.054;25.146;2023-03-03T17:24:21;95521.47;;;2.77;100.00
61408;BME280;47274;43.054;25.146;2023-03-03T17:29:49;95468.94;;;2.41;100.00
61408;BME280;47274;43.054;25.146;2023-03-03T17:37:29;95531.53;;;2.78;100.00
61408;BME280;47274;43.054;25.146;2023-03-03T17:40:10;95535.59;;;2.81;100.00
61408;BME280;47274;43.054;25.146;2023-03-03T17:43:20;95538.13;;;2.81;100.00
61408;BME280;47274;43.054;25.146;2023-03-03T17:45:39;95534.88;;;2.79;100.00
61408;BME280;47274;43.054;25.146;2023-03-03T17:56:34;95520.38;;;2.68;100.00
61408;BME280;47274;43.054;25.146;2023-03-03T17:59:57;95547.56;;;2.79;100.00
61408;BME280;47274;43.054;25.146;2023-03-03T18:58:55;95442.41;;;1.79;100.00
61408;BME280;47274;43.054;25.146;2023-03-03T19:04:23;95571.34;;;2.64;100.00
61408;BME280;47274;43.054;25.146;2023-03-03T19:07:08;95521.16;;;2.29;100.00
61408;BME280;47274;43.054;25.146;2023-03-03T19:09:50;95476.13;;;2.07;100.00
61408;BME280;47274;43.054;25.146;2023-03-03T19:12:41;95569.50;;;2.66;100.00
61408;BME280;47274;43.054;25.146;2023-03-03T19:18:22;95568.47;;;2.55;100.00
61408;BME280;47274;43.054;25.146;2023-03-03T19:21:03;95526.81;;;2.20;100.00
61408;BME280;47274;43.054;25.146;2023-03-03T19:24:29;95567.34;;;2.47;100.00
61408;BME280;47274;43.054;25.146;2023-03-03T19:48:16;95480.00;;;1.85;100.00
61408;BME280;47274;43.054;25.146;2023-03-03T19:58:03;95548.88;;;2.18;100.00
61408;BME280;47274;43.054;25.146;2023-03-03T20:04:30;95585.06;;;2.32;100.00
61408;BME280;47274;43.054;25.146;2023-03-03T20:07:37;95590.97;;;2.33;100.00
61408;BME280;47274;43.054;25.146;2023-03-03T20:11:01;95457.56;;;1.52;100.00
61408;BME280;47274;43.054;25.146;2023-03-03T20:26:11;95458.09;;;1.57;100.00
61408;BME280;47274;43.054;25.146;2023-03-03T21:15:37;95541.94;;;2.07;100.00
61408;BME280;47274;43.054;25.146;2023-03-03T21:18:20;95499.78;;;1.79;100.00
61408;BME280;47274;43.054;25.146;2023-03-03T21:20:46;95442.22;;;1.41;100.00
61408;BME280;47274;43.054;25.146;2023-03-03T21:23:13;95503.13;;;1.79;100.00
61408;BME280;47274;43.054;25.146;2023-03-03T21:31:12;95581.56;;;2.35;100.00
61408;BME280;47274;43.054;25.146;2023-03-03T21:36:12;95458.91;;;1.58;100.00
61408;BME280;47274;43.054;25.146;2023-03-03T21:38:39;95444.56;;;1.44;100.00
61408;BME280;47274;43.054;25.146;2023-03-03T21:41:07;95425.53;;;1.38;100.00
61408;BME280;47274;43.054;25.146;2023-03-03T21:43:36;95490.16;;;1.71;100.00